Time;durP1;ratioP1;P1;durP2;ratioP2;P2;SDS_P1;SDS_P2;PMS_P1;PMS_P2;Temp;Humidity;BMP_temperature;BMP_pressure;BME280_temperature;BME280_humidity;BME280_pressure;Samples;Min_cycle;Max_cycle;Signal;HPM_P1;HPM_P2
2024/04/05 00:01:46;;;;;;;;;;;;;;;-3.97;90.82;102113.19;5059046;28;19932;-67
2024/04/05 00:04:11;;;;;;;;;;;;;;;-3.97;91.14;102104.53;5078994;28;19921;-67
2024/04/05 00:06:37;;;;;;;;;;;;;;;-4.01;91.77;102105.50;5065382;28;19925;-68
2024/04/05 00:09:06;;;;;;;;;;;;;;;-4.11;93.60;102115.25;5064660;28;19927;-67
2024/04/05 00:11:31;;;;;;;;;;;;;;;-4.15;93.30;102109.28;5061090;28;19925;-69
2024/04/05 00:13:57;;;;;;;;;;;;;;;-4.18;94.52;102117.16;5067316;28;19965;-69
2024/04/05 00:16:22;;;;;;;;;;;;;;;-4.18;93.80;102121.50;5083358;28;19946;-66
2024/04/05 00:18:48;;;;;;;;;;;;;;;-4.19;94.24;102127.59;5088789;28;19921;-66
2024/04/05 00:21:13;;;;;;;;;;;;;;;-4.18;93.18;102126.69;5081373;28;19988;-69
2024/04/05 00:23:38;;;;;;;;;;;;;;;-4.15;93.72;102132.69;5072975;28;19974;-68
2024/04/05 00:26:05;;;;;;;;;;;;;;;-4.19;92.80;102132.78;5074613;28;19925;-68
2024/04/05 00:28:30;;;;;;;;;;;;;;;-4.24;93.77;102130.31;5074392;28;20022;-68
2024/04/05 00:30:56;;;;;;;;;;;;;;;-4.35;94.16;102132.28;5072732;28;20508;-66
2024/04/05 00:33:22;;;;;;;;;;;;;;;-4.42;95.59;102133.31;5073209;28;20327;-68
2024/04/05 00:35:48;;;;;;;;;;;;;;;-4.48;95.37;102144.69;5073283;28;19983;-67
2024/04/05 00:38:13;;;;;;;;;;;;;;;-4.51;96.28;102134.38;5072482;28;19920;-66
2024/04/05 00:40:39;;;;;;;;;;;;;;;-4.54;96.73;102141.38;5073604;28;19977;-66
2024/04/05 00:48:51;;;;;;;;;;;;;;;-4.56;97.29;102148.38;5072488;28;19928;-67
2024/04/05 00:51:35;;;;;;;;;;;;;;;-4.59;97.79;102145.84;5072130;28;20043;-65
2024/04/05 00:54:19;;;;;;;;;;;;;;;-4.59;97.15;102153.63;5072136;28;20470;-66
2024/04/05 00:57:03;;;;;;;;;;;;;;;-4.59;98.83;102148.44;5055507;28;19920;-67
2024/04/05 00:59:47;;;;;;;;;;;;;;;-4.57;98.01;102151.84;5071936;28;19975;-67
2024/04/05 01:05:15;;;;;;;;;;;;;;;-4.49;98.33;102161.19;5071995;28;19920;-69
2024/04/05 01:07:59;;;;;;;;;;;;;;;-4.48;98.27;102156.84;5071987;28;20023;-67
2024/04/05 01:13:27;;;;;;;;;;;;;;;-4.50;98.37;102158.63;5073304;28;19989;-67
2024/04/05 01:15:52;;;;;;;;;;;;;;;-4.45;97.41;102167.19;5070603;28;20419;-67
2024/04/05 01:18:17;;;;;;;;;;;;;;;-4.42;97.29;102167.97;5070537;28;20015;-67
2024/04/05 01:20:43;;;;;;;;;;;;;;;-4.41;98.29;102174.88;5071142;28;19921;-68
2024/04/05 01:23:12;;;;;;;;;;;;;;;-4.40;98.23;102175.72;5071852;28;19920;-67
2024/04/05 01:25:37;;;;;;;;;;;;;;;-4.41;97.25;102171.41;5071444;28;19924;-67
2024/04/05 01:28:12;;;;;;;;;;;;;;;-4.47;97.04;102176.75;5073108;28;19931;-67
2024/04/05 01:30:37;;;;;;;;;;;;;;;-4.45;97.33;102170.63;5071629;28;19931;-68
2024/04/05 01:33:03;;;;;;;;;;;;;;;-4.44;96.93;102176.69;5071683;28;19920;-68
2024/04/05 01:35:28;;;;;;;;;;;;;;;-4.43;97.31;102181.00;5073245;28;19928;-68
2024/04/05 01:37:54;;;;;;;;;;;;;;;-4.41;96.79;102184.44;5073963;28;20391;-65
2024/04/05 01:40:20;;;;;;;;;;;;;;;-4.42;95.68;102182.72;5079113;28;19920;-68
2024/04/05 01:42:45;;;;;;;;;;;;;;;-4.40;95.93;102180.94;5075865;28;19931;-67
2024/04/05 01:45:11;;;;;;;;;;;;;;;-4.38;96.52;102185.22;5078171;28;19928;-66
2024/04/05 01:47:36;;;;;;;;;;;;;;;-4.36;95.82;102177.38;5077539;28;20387;-68
2024/04/05 01:50:02;;;;;;;;;;;;;;;-4.35;95.98;102176.47;5077517;28;19920;-67
2024/04/05 01:52:27;;;;;;;;;;;;;;;-4.30;96.72;102169.47;5074952;28;20387;-69
2024/04/05 01:54:52;;;;;;;;;;;;;;;-4.26;96.06;102172.84;5071450;28;19920;-66
2024/04/05 01:57:18;;;;;;;;;;;;;;;-4.29;95.43;102171.19;5070798;28;19920;-66
2024/04/05 01:59:53;;;;;;;;;;;;;;;-4.31;95.27;102170.34;5060532;28;19974;-67
2024/04/05 02:02:19;;;;;;;;;;;;;;;-4.32;95.18;102166.03;5051667;28;19924;-68
2024/04/05 02:04:44;;;;;;;;;;;;;;;-4.34;94.19;102170.41;5051710;28;19927;-68
2024/04/05 02:07:10;;;;;;;;;;;;;;;-4.33;95.18;102155.69;5051596;28;20286;-67
2024/04/05 02:09:35;;;;;;;;;;;;;;;-4.33;94.80;102169.53;5051751;28;19924;-66
2024/04/05 02:12:01;;;;;;;;;;;;;;;-4.25;95.39;102157.22;5054860;28;19932;-68
2024/04/05 02:14:26;;;;;;;;;;;;;;;-4.15;94.94;102155.25;5054221;28;19921;-65
2024/04/05 02:17:01;;;;;;;;;;;;;;;-4.13;93.87;102163.88;5076285;28;19920;-65
2024/04/05 02:19:26;;;;;;;;;;;;;;;-4.14;93.56;102151.75;5060767;28;19924;-66
2024/04/05 02:21:51;;;;;;;;;;;;;;;-4.11;93.88;102162.09;5053390;28;20493;-67
2024/04/05 02:24:17;;;;;;;;;;;;;;;-4.04;93.61;102152.41;5049990;28;19928;-66
2024/04/05 02:26:43;;;;;;;;;;;;;;;-4.03;93.79;102165.38;5051755;28;19928;-67
2024/04/05 02:29:08;;;;;;;;;;;;;;;-4.02;93.19;102167.09;5051647;28;19925;-68
2024/04/05 02:31:34;;;;;;;;;;;;;;;-4.02;92.72;102167.09;5052575;28;20433;-66
2024/04/05 02:34:00;;;;;;;;;;;;;;;-4.06;92.33;102165.44;5053741;28;20016;-67
2024/04/05 02:36:25;;;;;;;;;;;;;;;-4.09;91.95;102166.34;5054981;28;20024;-66
2024/04/05 02:38:51;;;;;;;;;;;;;;;-4.11;92.23;102160.34;5055019;28;19925;-67
2024/04/05 02:41:16;;;;;;;;;;;;;;;-4.16;91.36;102170.00;5054881;28;19925;-68
2024/04/05 02:43:41;;;;;;;;;;;;;;;-4.21;91.38;102155.38;5054778;28;19956;-65
2024/04/05 02:46:07;;;;;;;;;;;;;;;-4.23;91.82;102168.44;5055415;28;19966;-69
2024/04/05 02:48:32;;;;;;;;;;;;;;;-4.30;90.97;102161.66;5053823;28;19920;-67
2024/04/05 02:50:57;;;;;;;;;;;;;;;-4.38;90.97;102172.22;5054506;28;20306;-67
2024/04/05 02:53:26;;;;;;;;;;;;;;;-4.40;91.14;102163.59;5054410;28;20387;-66
2024/04/05 02:55:51;;;;;;;;;;;;;;;-4.49;90.22;102160.34;5054845;28;19966;-66
2024/04/05 02:58:17;;;;;;;;;;;;;;;-4.55;90.43;102150.94;5070214;28;20008;-67
2024/04/05 03:00:45;;;;;;;;;;;;;;;-4.55;91.22;102150.06;5054903;28;19921;-67
2024/04/05 03:03:10;;;;;;;;;;;;;;;-4.63;89.00;102149.34;5055372;28;20016;-67
2024/04/05 03:05:35;;;;;;;;;;;;;;;-4.61;89.56;102142.41;5054368;28;19989;-69
2024/04/05 03:08:01;;;;;;;;;;;;;;;-4.62;89.08;102145.91;5055748;28;19986;-67
2024/04/05 03:10:26;;;;;;;;;;;;;;;-4.61;87.37;102145.00;5055779;28;20303;-66
2024/04/05 03:12:52;;;;;;;;;;;;;;;-4.65;86.23;102149.38;5055035;28;19928;-66
2024/04/05 03:15:17;;;;;;;;;;;;;;;-5.25;86.10;102057.97;5055379;28;19920;-69
2024/04/05 03:17:46;;;;;;;;;;;;;;;-4.66;86.48;102152.88;5055102;28;19925;-67
2024/04/05 03:20:14;;;;;;;;;;;;;;;-4.71;85.55;102152.97;5053953;28;19925;-68
2024/04/05 03:22:39;;;;;;;;;;;;;;;-4.73;85.06;102153.91;5056429;28;19928;-68
2024/04/05 03:25:05;;;;;;;;;;;;;;;-4.76;84.44;102151.38;5070767;28;19940;-69
2024/04/05 03:27:31;;;;;;;;;;;;;;;-4.78;84.38;102154.00;5072466;28;20429;-69
2024/04/05 03:29:56;;;;;;;;;;;;;;;-4.82;85.30;102156.69;5054420;28;19968;-67
2024/04/05 03:32:22;;;;;;;;;;;;;;;-4.85;85.32;102155.00;5054675;28;19999;-67
2024/04/05 03:34:47;;;;;;;;;;;;;;;-4.80;85.50;102152.31;5054310;28;19974;-67
2024/04/05 03:37:12;;;;;;;;;;;;;;;-4.77;84.99;102144.47;5054367;28;19924;-68
2024/04/05 03:39:38;;;;;;;;;;;;;;;-4.72;84.52;102153.88;5054076;28;20410;-69
2024/04/05 03:42:03;;;;;;;;;;;;;;;-4.65;84.07;102143.34;5069466;28;20051;-69
2024/04/05 03:44:29;;;;;;;;;;;;;;;-4.58;83.72;102145.81;5054561;28;20008;-69
2024/04/05 03:46:54;;;;;;;;;;;;;;;-4.40;84.07;102149.72;5053515;28;20002;-65
2024/04/05 03:49:19;;;;;;;;;;;;;;;-4.24;83.91;102148.50;5054385;28;19921;-67
2024/04/05 03:51:45;;;;;;;;;;;;;;;-4.12;81.99;102156.03;5053801;28;19920;-65
2024/04/05 03:54:10;;;;;;;;;;;;;;;-4.06;81.35;102152.41;5053918;28;19921;-66
2024/04/05 03:56:35;;;;;;;;;;;;;;;-4.00;79.99;102139.28;5053848;28;19924;-67
2024/04/05 03:59:01;;;;;;;;;;;;;;;-3.95;79.44;102137.44;5054076;28;19963;-67
2024/04/05 04:01:26;;;;;;;;;;;;;;;-3.95;79.45;102137.44;5053922;28;20380;-68
2024/04/05 04:03:51;;;;;;;;;;;;;;;-3.85;80.53;102138.91;5053541;28;19927;-69
2024/04/05 04:06:17;;;;;;;;;;;;;;;-3.77;79.05;102141.31;5052695;28;19921;-66
2024/04/05 04:08:42;;;;;;;;;;;;;;;-3.79;79.35;102138.75;5053224;28;19928;-69
2024/04/05 04:11:07;;;;;;;;;;;;;;;-3.85;78.53;102138.06;5053154;28;19921;-66
2024/04/05 04:13:33;;;;;;;;;;;;;;;-3.95;79.47;102136.56;5052414;28;19921;-66
2024/04/05 04:15:59;;;;;;;;;;;;;;;-3.86;80.17;102131.13;5052863;28;20392;-66
2024/04/05 04:18:25;;;;;;;;;;;;;;;-3.80;80.22;102137.03;5053303;28;19921;-66
2024/04/05 04:20:51;;;;;;;;;;;;;;;-3.75;79.67;102136.97;5052991;28;20302;-66
2024/04/05 04:23:17;;;;;;;;;;;;;;;-3.64;79.74;102132.34;5053596;28;19921;-66
2024/04/05 04:25:44;;;;;;;;;;;;;;;-3.58;78.43;102145.19;5052484;28;20446;-65
2024/04/05 04:28:13;;;;;;;;;;;;;;;-3.58;78.98;102139.97;5052945;28;19925;-66
2024/04/05 04:30:38;;;;;;;;;;;;;;;-3.47;78.49;102140.59;5052491;28;19925;-69
2024/04/05 04:33:04;;;;;;;;;;;;;;;-3.41;78.50;102146.53;5052568;28;19966;-68
2024/04/05 04:35:29;;;;;;;;;;;;;;;-3.40;78.39;102133.47;5052431;28;20004;-69
2024/04/05 04:37:54;;;;;;;;;;;;;;;-3.35;78.43;102138.53;5053521;28;19921;-68
2024/04/05 04:40:20;;;;;;;;;;;;;;;-3.38;77.39;102139.47;5051131;28;20302;-70
2024/04/05 04:42:45;;;;;;;;;;;;;;;-3.35;77.97;102143.75;5052331;28;19928;-67
2024/04/05 04:45:11;;;;;;;;;;;;;;;-3.26;78.19;102140.91;5053138;28;19925;-66
2024/04/05 04:47:37;;;;;;;;;;;;;;;-3.20;78.27;102144.19;5051018;28;20368;-66
2024/04/05 04:50:04;;;;;;;;;;;;;;;-3.09;78.72;102141.31;5052344;28;19920;-67
2024/04/05 04:52:29;;;;;;;;;;;;;;;-3.03;77.90;102127.25;5051131;28;20007;-68
2024/04/05 04:54:56;;;;;;;;;;;;;;;-2.93;77.11;102126.94;5053104;28;20011;-68
2024/04/05 04:57:22;;;;;;;;;;;;;;;-2.92;77.76;102133.00;5051733;28;19972;-66
2024/04/05 04:59:47;;;;;;;;;;;;;;;-2.93;76.88;102126.94;5052347;28;20387;-67
2024/04/05 05:02:13;;;;;;;;;;;;;;;-3.00;76.48;102127.16;5052051;28;19921;-67
2024/04/05 05:04:38;;;;;;;;;;;;;;;-3.04;77.25;102122.94;5051782;28;19921;-68
2024/04/05 05:07:06;;;;;;;;;;;;;;;-3.10;77.03;102125.72;5051990;28;19928;-65
2024/04/05 05:09:32;;;;;;;;;;;;;;;-3.18;77.39;102128.50;5054315;28;19920;-67
2024/04/05 05:11:57;;;;;;;;;;;;;;;-3.22;79.02;102124.28;5054335;28;20031;-67
2024/04/05 05:14:23;;;;;;;;;;;;;;;-3.03;78.38;102129.84;5061855;28;19928;-67
2024/04/05 05:16:48;;;;;;;;;;;;;;;-2.83;79.04;102136.22;5061326;28;20407;-68
2024/04/05 05:19:14;;;;;;;;;;;;;;;-2.86;76.83;102141.53;5058852;28;19921;-66
2024/04/05 05:21:39;;;;;;;;;;;;;;;-2.81;76.90;102137.03;5052204;28;19920;-65
2024/04/05 05:24:05;;;;;;;;;;;;;;;-2.71;77.24;102137.63;5052551;28;19927;-66
2024/04/05 05:26:31;;;;;;;;;;;;;;;-2.59;77.24;102136.41;5053500;28;20462;-69
2024/04/05 05:28:56;;;;;;;;;;;;;;;-2.44;76.69;102135.94;5052775;28;20047;-70
2024/04/05 05:31:22;;;;;;;;;;;;;;;-2.36;76.64;102130.50;5052227;28;20049;-65
2024/04/05 05:33:48;;;;;;;;;;;;;;;-2.39;75.22;102131.44;5052897;28;19921;-67
2024/04/05 05:36:13;;;;;;;;;;;;;;;-2.50;76.24;102121.34;5050560;28;19920;-68
2024/04/05 05:38:39;;;;;;;;;;;;;;;-2.61;76.84;102123.41;5050562;28;19921;-66
2024/04/05 05:41:04;;;;;;;;;;;;;;;-2.86;77.62;102091.16;5053665;28;20226;-68
2024/04/05 05:43:29;;;;;;;;;;;;;;;-2.83;77.24;102117.13;5052096;28;20023;-70
2024/04/05 05:45:54;;;;;;;;;;;;;;;-2.91;78.20;102119.06;5051484;28;20003;-68
2024/04/05 05:48:20;;;;;;;;;;;;;;;-3.03;78.18;102114.22;5051276;28;19921;-67
2024/04/05 05:50:46;;;;;;;;;;;;;;;-3.18;79.14;102110.25;5051820;28;19925;-65
2024/04/05 05:53:11;;;;;;;;;;;;;;;-3.25;79.56;102113.94;5050908;28;19920;-66
2024/04/05 05:55:37;;;;;;;;;;;;;;;-3.31;79.73;102124.53;5051188;28;20368;-66
2024/04/05 05:58:02;;;;;;;;;;;;;;;-3.35;79.88;102112.50;5051156;28;19921;-67
2024/04/05 06:00:27;;;;;;;;;;;;;;;-3.35;80.01;102113.34;5050925;28;19921;-71
2024/04/05 06:02:53;;;;;;;;;;;;;;;-3.34;79.79;102115.06;5050955;28;19965;-69
2024/04/05 06:05:23;;;;;;;;;;;;;;;-3.29;79.15;102112.31;5051239;28;19921;-67
2024/04/05 06:07:49;;;;;;;;;;;;;;;-3.25;78.26;102103.53;5068734;28;20371;-68
2024/04/05 06:10:14;;;;;;;;;;;;;;;-3.15;77.68;102105.00;5054936;28;19920;-70
2024/04/05 06:12:41;;;;;;;;;;;;;;;-3.13;76.77;102113.63;5054932;28;19920;-69
2024/04/05 06:15:07;;;;;;;;;;;;;;;-3.03;76.95;102104.66;5054363;28;20021;-67
2024/04/05 06:17:35;;;;;;;;;;;;;;;-2.93;76.18;102100.88;5054705;28;20094;-68
2024/04/05 06:20:01;;;;;;;;;;;;;;;-2.89;74.73;102091.19;5054427;28;20449;-67
2024/04/05 06:22:30;;;;;;;;;;;;;;;-2.91;73.47;102093.00;5054239;28;20337;-68
2024/04/05 06:24:55;;;;;;;;;;;;;;;-2.75;73.71;102093.44;5054074;28;19929;-67
2024/04/05 06:27:21;;;;;;;;;;;;;;;-2.63;73.16;102088.69;5054317;28;19947;-67
2024/04/05 06:29:47;;;;;;;;;;;;;;;-2.58;73.11;102083.34;5070201;28;19924;-67
2024/04/05 06:32:13;;;;;;;;;;;;;;;-2.53;71.10;102084.91;5055482;28;20000;-72
2024/04/05 06:34:40;;;;;;;;;;;;;;;-2.36;70.50;102081.78;5054630;28;19928;-66
2024/04/05 06:37:06;;;;;;;;;;;;;;;-2.32;68.15;102075.56;5055903;28;19932;-67
2024/04/05 06:39:32;;;;;;;;;;;;;;;-2.24;68.77;102080.56;5055376;28;20296;-68
2024/04/05 06:41:57;;;;;;;;;;;;;;;-2.21;68.05;102070.88;5055237;28;19924;-67
2024/04/05 06:44:22;;;;;;;;;;;;;;;-2.10;69.37;102067.91;5055971;28;19921;-66
2024/04/05 06:46:48;;;;;;;;;;;;;;;-2.02;68.65;102072.91;5055205;28;19921;-67
2024/04/05 06:49:14;;;;;;;;;;;;;;;-2.14;67.10;102070.66;5054744;28;19920;-68
2024/04/05 06:51:39;;;;;;;;;;;;;;;-2.15;67.28;102072.41;5056322;28;19972;-69
2024/04/05 06:54:05;;;;;;;;;;;;;;;-2.13;65.88;102077.59;5056897;28;19928;-67
2024/04/05 06:56:30;;;;;;;;;;;;;;;-2.00;66.84;102073.69;5055036;28;19921;-69
2024/04/05 06:58:56;;;;;;;;;;;;;;;-1.73;67.01;102069.31;5052861;28;19924;-68
2024/04/05 07:01:21;;;;;;;;;;;;;;;-1.51;65.15;102067.66;5074930;28;20031;-67
2024/04/05 07:03:47;;;;;;;;;;;;;;;-1.45;64.73;102058.72;5053044;28;20418;-69
2024/04/05 07:06:12;;;;;;;;;;;;;;;-1.51;62.70;102072.03;5053991;28;19921;-67
2024/04/05 07:08:37;;;;;;;;;;;;;;;-1.57;62.84;102075.69;5054665;28;19928;-69
2024/04/05 07:11:06;;;;;;;;;;;;;;;-1.74;63.92;102080.63;5055190;28;19920;-70
2024/04/05 07:13:32;;;;;;;;;;;;;;;-1.81;64.99;102074.78;5055923;28;19920;-70
2024/04/05 07:15:57;;;;;;;;;;;;;;;-1.64;65.60;102064.63;5056214;28;19927;-68
2024/04/05 07:18:24;;;;;;;;;;;;;;;-1.52;66.16;102078.16;5057377;28;19928;-68
2024/04/05 07:20:55;;;;;;;;;;;;;;;-1.36;65.58;102074.09;5056133;28;19921;-72
2024/04/05 07:23:21;;;;;;;;;;;;;;;-1.31;64.73;102069.56;5054216;28;19999;-68
2024/04/05 07:25:47;;;;;;;;;;;;;;;-1.28;65.69;102053.78;5054373;28;20028;-71
2024/04/05 07:28:12;;;;;;;;;;;;;;;-1.41;66.94;102055.97;5054233;28;19931;-68
2024/04/05 07:30:38;;;;;;;;;;;;;;;-1.39;67.73;102051.56;5054036;28;19947;-68
2024/04/05 07:33:03;;;;;;;;;;;;;;;-1.26;67.47;102052.81;5057779;28;19925;-71
2024/04/05 07:35:29;;;;;;;;;;;;;;;-1.20;66.42;102046.50;5053264;28;20019;-70
2024/04/05 07:37:55;;;;;;;;;;;;;;;-1.29;65.79;102052.06;5054413;28;20372;-68
2024/04/05 07:40:24;;;;;;;;;;;;;;;-1.45;67.23;102050.91;5054373;28;19928;-70
2024/04/05 07:42:50;;;;;;;;;;;;;;;-1.40;68.44;102039.41;5054427;28;20292;-72
2024/04/05 07:45:15;;;;;;;;;;;;;;;-1.35;67.71;102034.00;5054126;28;19921;-73
2024/04/05 07:47:41;;;;;;;;;;;;;;;-1.27;67.47;102037.19;5055320;28;20012;-72
2024/04/05 07:50:07;;;;;;;;;;;;;;;-1.18;67.73;102035.97;5052645;28;19925;-73
2024/04/05 07:52:32;;;;;;;;;;;;;;;-1.25;67.52;102038.81;5056418;28;19921;-75
2024/04/05 07:54:57;;;;;;;;;;;;;;;-1.43;67.84;102025.59;5055810;28;19974;-70
2024/04/05 07:57:23;;;;;;;;;;;;;;;-1.27;69.14;102018.88;5041218;28;19948;-70
2024/04/05 07:59:49;;;;;;;;;;;;;;;-0.91;67.78;102011.41;5056413;28;20296;-70
2024/04/05 08:02:14;;;;;;;;;;;;;;;-0.79;66.84;102010.13;5053963;28;19921;-69
2024/04/05 08:04:40;;;;;;;;;;;;;;;-0.70;67.48;102012.38;5054379;28;19928;-70
2024/04/05 08:07:11;;;;;;;;;;;;;;;-0.58;67.82;102003.16;5054162;28;20303;-69
2024/04/05 08:09:37;;;;;;;;;;;;;;;-0.37;67.01;101995.31;5073228;28;20521;-72
2024/04/05 08:12:02;;;;;;;;;;;;;;;-0.20;66.27;101988.53;5071569;28;19979;-69
2024/04/05 08:14:28;;;;;;;;;;;;;;;0.09;65.74;101996.03;5072996;28;19921;-66
2024/04/05 08:16:53;;;;;;;;;;;;;;;0.17;65.24;101999.16;5073080;28;20367;-67
2024/04/05 08:19:18;;;;;;;;;;;;;;;0.26;64.61;102001.38;5073219;28;19927;-67
2024/04/05 08:21:43;;;;;;;;;;;;;;;0.36;64.23;102011.47;5077547;28;19932;-66
2024/04/05 08:24:09;;;;;;;;;;;;;;;0.06;62.46;101996.16;5075537;28;19920;-69
2024/04/05 08:26:34;;;;;;;;;;;;;;;-0.17;62.81;101993.66;5075006;28;19939;-70
2024/04/05 08:29:01;;;;;;;;;;;;;;;-0.29;63.72;101984.53;5075957;28;20007;-70
2024/04/05 08:31:28;;;;;;;;;;;;;;;-0.20;63.97;101991.16;5072059;28;19935;-70
2024/04/05 08:33:54;;;;;;;;;;;;;;;-0.29;64.17;101968.81;5073292;28;19920;-69
2024/04/05 08:36:20;;;;;;;;;;;;;;;-0.22;63.87;101974.66;5074739;28;19920;-67
2024/04/05 08:38:46;;;;;;;;;;;;;;;-0.17;64.04;101977.94;5073131;28;19920;-69
2024/04/05 08:41:12;;;;;;;;;;;;;;;-0.20;63.43;101963.22;5072798;28;19928;-67
2024/04/05 08:43:39;;;;;;;;;;;;;;;-0.01;64.24;101963.25;5072684;28;20026;-70
2024/04/05 08:46:05;;;;;;;;;;;;;;;0.27;64.37;101958.53;5072406;28;19921;-71
2024/04/05 08:48:33;;;;;;;;;;;;;;;0.40;62.23;101958.00;5070164;28;20333;-71
2024/04/05 08:50:58;;;;;;;;;;;;;;;0.38;61.67;101960.69;5071599;28;19927;-68
2024/04/05 08:53:24;;;;;;;;;;;;;;;0.44;61.73;101959.56;5071556;28;19920;-71
2024/04/05 08:55:50;;;;;;;;;;;;;;;0.51;61.59;101958.38;5069970;28;20011;-69
2024/04/05 08:58:15;;;;;;;;;;;;;;;0.51;61.97;101961.00;5071735;28;20383;-68
2024/04/05 09:00:40;;;;;;;;;;;;;;;0.64;62.55;101956.06;5072592;28;19920;-69
2024/04/05 09:03:06;;;;;;;;;;;;;;;0.78;61.73;101956.25;5071244;28;20410;-66
2024/04/05 09:05:32;;;;;;;;;;;;;;;0.72;60.52;101946.91;5072530;28;20260;-71
2024/04/05 09:08:08;;;;;;;;;;;;;;;0.75;61.30;101930.19;5075002;28;19959;-70
2024/04/05 09:10:34;;;;;;;;;;;;;;;0.79;61.81;101927.34;5071057;28;19920;-66
2024/04/05 09:12:59;;;;;;;;;;;;;;;0.78;60.67;101944.00;5072115;28;20280;-67
2024/04/05 09:15:25;;;;;;;;;;;;;;;0.65;62.05;101936.78;5072048;28;19934;-71
2024/04/05 09:17:51;;;;;;;;;;;;;;;0.52;61.32;101912.88;5071623;28;19921;-69
2024/04/05 09:20:24;;;;;;;;;;;;;;;0.26;61.09;101911.44;5071051;28;19986;-69
2024/04/05 09:22:56;;;;;;;;;;;;;;;0.46;62.20;101900.91;5073562;28;19924;-70
2024/04/05 09:25:24;;;;;;;;;;;;;;;0.48;61.42;101913.97;5072922;28;19921;-70
2024/04/05 09:27:51;;;;;;;;;;;;;;;0.53;61.82;101896.25;5053034;28;19970;-71
2024/04/05 09:30:17;;;;;;;;;;;;;;;0.69;61.75;101894.63;5071326;28;19954;-72
2024/04/05 09:32:47;;;;;;;;;;;;;;;0.86;62.56;101888.56;5070797;28;19924;-69
2024/04/05 09:35:15;;;;;;;;;;;;;;;0.98;61.22;101892.41;5070604;28;19920;-70
2024/04/05 09:37:40;;;;;;;;;;;;;;;0.90;60.54;101892.78;5070247;28;19920;-69
2024/04/05 09:40:10;;;;;;;;;;;;;;;0.76;61.25;101893.41;5071267;28;20014;-70
2024/04/05 09:42:36;;;;;;;;;;;;;;;0.81;61.65;101877.44;5071616;28;20476;-70
2024/04/05 09:45:02;;;;;;;;;;;;;;;0.72;61.26;101872.66;5074327;28;20075;-68
2024/04/05 09:47:31;;;;;;;;;;;;;;;0.54;61.20;101876.97;5074456;28;19942;-70
2024/04/05 09:49:58;;;;;;;;;;;;;;;0.53;60.83;101872.66;5070824;28;19930;-73
2024/04/05 09:52:28;;;;;;;;;;;;;;;0.82;61.37;101871.28;5071463;28;19920;-68
2024/04/05 09:54:58;;;;;;;;;;;;;;;0.93;60.69;101858.53;5071965;28;19946;-69
2024/04/05 09:57:26;;;;;;;;;;;;;;;1.08;60.41;101867.41;5072035;28;19925;-72
2024/04/05 09:59:53;;;;;;;;;;;;;;;1.04;59.03;101860.63;5071628;28;19920;-69
2024/04/05 10:02:19;;;;;;;;;;;;;;;0.90;60.62;101856.06;5071850;28;20264;-68
2024/04/05 10:04:46;;;;;;;;;;;;;;;1.14;61.88;101859.22;5072175;28;19921;-68
2024/04/05 10:07:12;;;;;;;;;;;;;;;1.39;59.37;101851.00;5072361;28;19966;-72
2024/04/05 10:09:37;;;;;;;;;;;;;;;1.39;59.57;101848.38;5070629;28;19920;-68
2024/04/05 10:12:13;;;;;;;;;;;;;;;1.39;58.33;101851.84;5070889;28;19920;-72
2024/04/05 10:14:39;;;;;;;;;;;;;;;1.49;57.79;101839.97;5071530;28;19921;-73
2024/04/05 10:17:08;;;;;;;;;;;;;;;1.63;59.17;101834.00;5070643;28;20375;-67
2024/04/05 10:19:43;;;;;;;;;;;;;;;1.71;58.56;101817.84;5078052;28;20327;-69
2024/04/05 10:22:09;;;;;;;;;;;;;;;1.75;57.71;101811.53;5060997;28;19927;-69
2024/04/05 10:24:37;;;;;;;;;;;;;;;1.70;57.27;101824.03;5057293;28;19920;-68
2024/04/05 10:27:04;;;;;;;;;;;;;;;1.43;56.63;101808.75;5051357;28;20392;-71
2024/04/05 10:29:33;;;;;;;;;;;;;;;1.23;57.00;101796.66;5051002;28;19932;-71
2024/04/05 10:32:01;;;;;;;;;;;;;;;1.12;57.19;101791.09;5083735;28;19993;-70
2024/04/05 10:34:27;;;;;;;;;;;;;;;1.05;57.13;101784.47;5052679;28;19958;-70
2024/04/05 10:36:53;;;;;;;;;;;;;;;1.10;57.59;101782.44;5050158;28;20360;-71
2024/04/05 10:39:19;;;;;;;;;;;;;;;1.13;58.03;101776.19;5050506;28;19921;-72
2024/04/05 10:41:48;;;;;;;;;;;;;;;1.11;57.73;101762.31;5049373;28;20396;-70
2024/04/05 10:44:13;;;;;;;;;;;;;;;1.03;57.66;101756.63;5051098;28;19927;-71
2024/04/05 10:46:39;;;;;;;;;;;;;;;1.15;57.68;101759.44;5049941;28;20399;-68
2024/04/05 10:49:05;;;;;;;;;;;;;;;1.27;57.10;101763.25;5033723;28;19964;-68
2024/04/05 10:51:30;;;;;;;;;;;;;;;1.37;57.12;101753.97;5051813;28;20014;-68
2024/04/05 10:54:06;;;;;;;;;;;;;;;1.27;56.29;101750.13;5052429;28;19934;-67
2024/04/05 10:56:32;;;;;;;;;;;;;;;1.50;58.14;101741.91;5054021;28;19999;-65
2024/04/05 10:58:58;;;;;;;;;;;;;;;1.81;57.11;101737.66;5053572;28;19967;-71
2024/04/05 11:01:23;;;;;;;;;;;;;;;1.73;56.08;101731.94;5052988;28;19959;-72
2024/04/05 11:03:49;;;;;;;;;;;;;;;1.87;56.43;101737.31;5054257;28;19921;-74
2024/04/05 11:06:15;;;;;;;;;;;;;;;2.06;56.22;101731.91;5053194;28;20340;-69
2024/04/05 11:08:48;;;;;;;;;;;;;;;2.31;54.51;101742.75;5053509;28;20004;-70
2024/04/05 11:11:13;;;;;;;;;;;;;;;2.29;54.86;101738.50;5054783;28;19929;-69
2024/04/05 11:13:40;;;;;;;;;;;;;;;2.52;54.85;101726.69;5054779;28;19990;-67
2024/04/05 11:16:05;;;;;;;;;;;;;;;2.48;54.92;101726.03;5054920;28;20392;-69
2024/04/05 11:18:37;;;;;;;;;;;;;;;2.47;53.57;101716.44;5053220;28;19921;-67
2024/04/05 11:21:03;;;;;;;;;;;;;;;2.41;53.96;101711.53;5053734;28;19920;-66
2024/04/05 11:23:28;;;;;;;;;;;;;;;2.06;54.47;101713.53;5054231;28;19921;-65
2024/04/05 11:25:56;;;;;;;;;;;;;;;1.96;55.08;101710.53;5054104;28;19925;-66
2024/04/05 11:28:23;;;;;;;;;;;;;;;2.04;55.10;101703.09;5086100;28;19924;-64
2024/04/05 11:30:51;;;;;;;;;;;;;;;1.98;55.68;101708.66;5054715;28;20725;-65
2024/04/05 11:33:16;;;;;;;;;;;;;;;2.02;54.72;101701.47;5054541;28;20371;-65
2024/04/05 11:35:43;;;;;;;;;;;;;;;2.04;55.49;101702.25;5053936;28;19925;-68
2024/04/05 11:38:08;;;;;;;;;;;;;;;2.05;55.75;101704.78;5053967;28;19975;-66
2024/04/05 11:40:34;;;;;;;;;;;;;;;2.17;55.75;101705.88;5053835;28;20303;-67
2024/04/05 11:42:59;;;;;;;;;;;;;;;2.22;54.44;101700.38;5053430;28;19928;-66
2024/04/05 11:45:24;;;;;;;;;;;;;;;2.23;54.56;101697.66;5053240;28;19927;-66
2024/04/05 11:47:50;;;;;;;;;;;;;;;2.35;54.72;101690.88;5055819;28;20380;-65
2024/04/05 11:50:16;;;;;;;;;;;;;;;2.39;54.73;101698.50;5054841;28;20396;-70
2024/04/05 11:52:41;;;;;;;;;;;;;;;2.41;55.36;101690.50;5053445;28;19921;-66
2024/04/05 11:55:08;;;;;;;;;;;;;;;2.45;55.60;101681.50;5053311;28;19979;-68
2024/04/05 11:57:33;;;;;;;;;;;;;;;2.47;54.94;101674.38;5052080;28;20399;-68
2024/04/05 11:59:59;;;;;;;;;;;;;;;2.40;55.16;101673.06;5052008;28;19920;-67
2024/04/05 12:02:25;;;;;;;;;;;;;;;2.27;55.70;101664.16;5053917;28;19928;-65
2024/04/05 12:04:50;;;;;;;;;;;;;;;2.04;54.30;101661.06;5052877;28;20406;-66
2024/04/05 12:07:16;;;;;;;;;;;;;;;1.97;54.26;101650.97;5052255;28;20253;-68
2024/04/05 12:09:41;;;;;;;;;;;;;;;1.93;54.03;101650.28;5053233;28;19921;-67
2024/04/05 12:12:06;;;;;;;;;;;;;;;1.93;54.38;101646.81;5053102;28;19966;-68
2024/04/05 12:14:35;;;;;;;;;;;;;;;2.03;54.29;101635.72;5052904;28;19920;-65
2024/04/05 12:17:01;;;;;;;;;;;;;;;2.06;53.31;101625.03;5052944;28;19920;-67
2024/04/05 12:19:27;;;;;;;;;;;;;;;1.86;53.87;101622.69;5054205;28;20422;-64
2024/04/05 12:21:52;;;;;;;;;;;;;;;1.89;54.83;101627.75;5053161;28;19928;-67
2024/04/05 12:24:17;;;;;;;;;;;;;;;1.78;54.09;101623.13;5052900;28;19929;-67
2024/04/05 12:26:43;;;;;;;;;;;;;;;1.81;54.62;101611.59;5052903;28;19931;-67
2024/04/05 12:29:09;;;;;;;;;;;;;;;1.93;54.76;101608.25;5052573;28;20289;-67
2024/04/05 12:31:35;;;;;;;;;;;;;;;1.91;54.27;101607.50;5052604;28;19943;-64
2024/04/05 12:34:00;;;;;;;;;;;;;;;2.00;56.01;101593.84;5053555;28;19920;-66
2024/04/05 12:36:25;;;;;;;;;;;;;;;2.21;54.70;101585.66;5051566;28;20300;-67
2024/04/05 12:38:56;;;;;;;;;;;;;;;2.20;54.11;101587.44;5053256;28;20324;-69
2024/04/05 12:41:24;;;;;;;;;;;;;;;2.26;54.61;101586.25;5052670;28;19921;-68
2024/04/05 12:43:50;;;;;;;;;;;;;;;2.36;53.54;101587.41;5052607;28;19921;-65
2024/04/05 12:46:15;;;;;;;;;;;;;;;2.28;53.62;101592.25;5052464;28;19970;-68
2024/04/05 12:48:41;;;;;;;;;;;;;;;2.26;53.52;101588.88;5052350;28;19928;-66